Time;durP1;ratioP1;P1;durP2;ratioP2;P2;SDS_P1;SDS_P2;PMS_P1;PMS_P2;Temp;Humidity;BMP_temperature;BMP_pressure;BME280_temperature;BME280_humidity;BME280_pressure;Samples;Min_cycle;Max_cycle;Signal;HPM_P1;HPM_P2
2022/11/28 00:01:50;;;;;;;8.35;4.88;;;7.20;99.90;;;;;;5016553;28;20045;-65
2022/11/28 00:04:16;;;;;;;9.25;5.05;;;7.00;99.90;;;;;;4999342;28;20498;-65
2022/11/28 00:06:44;;;;;;;10.20;5.60;;;7.00;99.90;;;;;;4994893;28;20117;-65
2022/11/28 00:09:12;;;;;;;10.65;5.30;;;7.00;99.90;;;;;;4995617;28;20042;-65
2022/11/28 00:11:42;;;;;;;11.70;5.72;;;7.10;99.90;;;;;;5007343;28;20044;-65
2022/11/28 00:14:08;;;;;;;11.27;6.00;;;7.00;99.90;;;;;;5013715;28;20106;-65
2022/11/28 00:16:35;;;;;;;15.43;6.18;;;7.10;99.90;;;;;;5014218;28;20501;-65
2022/11/28 00:19:03;;;;;;;26.35;8.98;;;7.10;99.90;;;;;;5016089;28;20068;-65
2022/11/28 00:21:30;;;;;;;15.85;7.05;;;7.00;99.90;;;;;;5015907;28;20049;-65
2022/11/28 00:23:56;;;;;;;33.50;10.10;;;7.00;99.90;;;;;;5016070;28;20038;-69
2022/11/28 00:26:34;;;;;;;35.35;11.00;;;7.20;99.90;;;;;;5015965;28;20034;-65
2022/11/28 00:29:00;;;;;;;19.08;7.22;;;7.20;99.90;;;;;;5016134;28;20041;-65
2022/11/28 00:31:29;;;;;;;24.67;8.90;;;7.30;99.90;;;;;;5015904;28;20033;-68
2022/11/28 00:33:55;;;;;;;17.67;7.22;;;7.20;99.90;;;;;;5003655;28;20513;-65
2022/11/28 00:36:22;;;;;;;23.10;7.93;;;7.20;99.90;;;;;;4996251;28;20125;-65
2022/11/28 00:38:49;;;;;;;14.10;6.18;;;7.20;99.90;;;;;;4996109;28;20393;-65
2022/11/28 00:41:18;;;;;;;41.97;14.65;;;7.20;99.90;;;;;;4996052;28;20031;-65
2022/11/28 00:43:45;;;;;;;17.98;8.18;;;7.20;99.90;;;;;;4994636;28;20456;-65
2022/11/28 00:46:13;;;;;;;11.77;5.82;;;7.20;99.90;;;;;;4997190;28;20049;-65
2022/11/28 00:48:39;;;;;;;14.60;6.80;;;7.20;99.90;;;;;;4997201;28;20393;-65
2022/11/28 00:51:12;;;;;;;12.25;5.75;;;7.30;99.90;;;;;;4998154;28;20027;-65
2022/11/28 00:53:40;;;;;;;14.68;6.20;;;7.50;99.90;;;;;;5013747;28;20053;-65
2022/11/28 00:56:08;;;;;;;21.90;8.20;;;7.40;99.90;;;;;;5014709;28;20436;-65
2022/11/28 00:58:35;;;;;;;22.67;9.48;;;7.30;99.90;;;;;;5012245;28;20133;-65
2022/11/28 01:01:07;;;;;;;17.42;7.85;;;7.20;99.90;;;;;;5013917;28;20053;-65
2022/11/28 01:03:33;;;;;;;18.50;6.88;;;7.10;99.90;;;;;;5015086;28;20040;-68
2022/11/28 01:05:59;;;;;;;37.55;12.20;;;7.20;99.90;;;;;;5014543;28;20515;-65
2022/11/28 01:08:24;;;;;;;10.55;5.90;;;7.10;99.90;;;;;;5014654;28;20543;-65
2022/11/28 01:10:50;;;;;;;7.80;4.45;;;7.10;99.90;;;;;;5014120;28;20539;-65
2022/11/28 01:13:16;;;;;;;20.85;7.18;;;7.00;99.90;;;;;;5014441;28;20054;-65
2022/11/28 01:15:42;;;;;;;33.15;11.38;;;6.90;99.90;;;;;;5013355;28;20041;-65
2022/11/28 01:18:08;;;;;;;16.45;7.13;;;7.00;99.90;;;;;;5014167;28;20041;-65
2022/11/28 01:20:34;;;;;;;28.38;11.85;;;7.00;99.90;;;;;;5014408;28;20504;-65
2022/11/28 01:23:00;;;;;;;14.18;7.57;;;7.10;99.90;;;;;;5014198;28;20034;-65
2022/11/28 01:25:26;;;;;;;28.65;9.98;;;7.10;99.90;;;;;;5014681;28;20049;-65
2022/11/28 01:27:51;;;;;;;32.22;11.05;;;7.10;99.90;;;;;;5014697;28;20038;-65
2022/11/28 01:30:17;;;;;;;32.95;10.80;;;7.00;99.90;;;;;;5014826;28;20133;-65
2022/11/28 01:32:43;;;;;;;13.68;6.45;;;7.10;99.90;;;;;;5013933;28;20044;-65
2022/11/28 01:35:09;;;;;;;13.75;6.43;;;7.20;99.90;;;;;;5013169;28;20045;-65
2022/11/28 01:37:35;;;;;;;16.63;6.45;;;7.20;99.90;;;;;;5014513;28;20509;-65
2022/11/28 01:40:00;;;;;;;14.90;5.82;;;7.20;99.90;;;;;;5014103;28;20129;-65
2022/11/28 01:42:26;;;;;;;12.52;5.45;;;7.20;99.90;;;;;;5014302;28;20128;-65
2022/11/28 01:44:52;;;;;;;5.53;3.53;;;7.40;99.90;;;;;;5012810;28;20061;-65
2022/11/28 01:47:24;;;;;;;8.35;2.80;;;7.60;99.90;;;;;;5013810;28;20034;-65
2022/11/28 01:49:50;;;;;;;10.70;4.28;;;7.70;99.90;;;;;;5014542;28;20052;-65
2022/11/28 01:52:18;;;;;;;8.73;3.80;;;7.80;99.90;;;;;;5014300;28;20087;-65
2022/11/28 01:54:49;;;;;;;6.72;2.92;;;7.70;99.90;;;;;;5014086;28;20062;-65
2022/11/28 01:57:18;;;;;;;18.23;5.78;;;7.70;99.90;;;;;;5014238;28;20564;-65
2022/11/28 01:59:55;;;;;;;19.23;6.32;;;7.80;99.90;;;;;;5014290;28;20053;-65
2022/11/28 02:02:44;;;;;;;20.35;6.78;;;7.80;99.90;;;;;;5013715;28;20432;-65
2022/11/28 02:05:10;;;;;;;9.70;4.05;;;7.80;99.90;;;;;;5013806;28;20045;-65
2022/11/28 02:07:36;;;;;;;6.32;2.88;;;7.90;99.90;;;;;;5013769;28;20040;-65
2022/11/28 02:10:05;;;;;;;8.43;3.50;;;7.90;99.90;;;;;;5014061;28;20037;-65
2022/11/28 02:12:41;;;;;;;9.52;4.53;;;7.90;99.90;;;;;;5013747;28;20045;-65
2022/11/28 02:15:10;;;;;;;5.80;3.53;;;7.90;99.90;;;;;;5013540;28;20527;-65
2022/11/28 02:17:39;;;;;;;7.25;2.47;;;8.00;99.90;;;;;;5013572;28;20041;-65
2022/11/28 02:20:29;;;;;;;4.20;2.42;;;7.90;99.90;;;;;;5002983;28;20038;-65
2022/11/28 02:23:00;;;;;;;8.00;2.60;;;8.00;99.90;;;;;;5008406;28;20572;-65
2022/11/28 02:25:41;;;;;;;4.30;2.22;;;8.00;99.90;;;;;;5012603;28;20117;-64
2022/11/28 02:28:22;;;;;;;4.40;2.95;;;7.90;99.90;;;;;;4995368;28;20046;-65
2022/11/28 02:31:07;;;;;;;8.75;3.13;;;7.90;99.90;;;;;;5001521;28;20069;-65
2022/11/28 02:33:37;;;;;;;5.55;3.00;;;7.90;99.90;;;;;;5017852;28;20180;-65
2022/11/28 02:36:16;;;;;;;7.63;3.55;;;8.00;99.90;;;;;;5017926;28;20037;-65
2022/11/28 02:38:57;;;;;;;8.65;3.97;;;7.90;99.90;;;;;;5016743;28;20132;-65
2022/11/28 02:41:46;;;;;;;8.23;4.63;;;7.90;99.90;;;;;;5017491;28;20493;-65
2022/11/28 02:44:37;;;;;;;14.18;5.00;;;7.90;99.90;;;;;;5017933;28;20095;-64
2022/11/28 02:47:13;;;;;;;9.98;4.38;;;7.90;99.90;;;;;;5011492;28;20040;-65
2022/11/28 02:50:10;;;;;;;10.73;4.20;;;7.90;99.90;;;;;;5008557;28;20030;-65
2022/11/28 02:52:41;;;;;;;7.72;4.40;;;7.80;99.90;;;;;;5015447;28;20511;-65
2022/11/28 02:55:08;;;;;;;6.78;3.42;;;7.90;99.90;;;;;;5017450;28;20134;-65
2022/11/28 02:57:39;;;;;;;9.55;3.55;;;7.90;99.90;;;;;;5017438;28;20052;-65
2022/11/28 03:00:35;;;;;;;6.45;3.53;;;7.90;99.90;;;;;;5015864;28;20077;-65
2022/11/28 03:03:22;;;;;;;5.20;2.85;;;7.90;99.90;;;;;;4998011;28;20031;-65
2022/11/28 03:05:53;;;;;;;6.20;2.80;;;7.90;99.90;;;;;;5011787;28;20044;-64
2022/11/28 03:08:50;;;;;;;5.88;3.25;;;8.00;99.90;;;;;;5016802;28;20042;-65
2022/11/28 03:11:19;;;;;;;7.78;3.50;;;8.00;99.90;;;;;;5016843;28;20066;-65
2022/11/28 03:14:22;;;;;;;5.72;2.97;;;8.00;99.90;;;;;;5016795;28;20045;-65
2022/11/28 03:17:19;;;;;;;8.23;3.40;;;8.00;99.90;;;;;;5015158;28;20162;-65
2022/11/28 03:20:06;;;;;;;4.93;2.88;;;8.10;99.90;;;;;;5007933;28;20045;-65
2022/11/28 03:22:54;;;;;;;5.93;3.25;;;8.00;99.90;;;;;;5016944;28;20041;-65
2022/11/28 03:25:51;;;;;;;4.03;2.58;;;8.00;99.90;;;;;;5017210;28;20049;-65
2022/11/28 03:28:44;;;;;;;7.40;2.83;;;8.10;99.90;;;;;;4976722;28;20034;-65
2022/11/28 03:31:14;;;;;;;4.25;2.08;;;8.10;99.90;;;;;;5010571;28;20080;-66
2022/11/28 03:33:47;;;;;;;3.63;2.10;;;8.10;99.90;;;;;;5016892;28;20532;-65
2022/11/28 03:36:24;;;;;;;3.28;1.80;;;8.20;99.90;;;;;;5011969;28;20565;-65
2022/11/28 03:38:55;;;;;;;3.58;2.22;;;8.20;99.90;;;;;;4997491;28;20038;-64
2022/11/28 03:41:33;;;;;;;4.05;2.60;;;8.20;99.90;;;;;;4996250;28;20042;-64
2022/11/28 03:44:00;;;;;;;5.47;2.80;;;8.10;99.90;;;;;;4997180;28;20038;-64
2022/11/28 03:46:35;;;;;;;5.53;2.60;;;7.80;99.90;;;;;;5006466;28;20042;-64
2022/11/28 03:49:02;;;;;;;3.67;2.40;;;7.70;99.90;;;;;;5016558;28;20046;-64
2022/11/28 03:51:36;;;;;;;5.88;2.40;;;7.70;99.90;;;;;;5016559;28;20042;-65
2022/11/28 03:54:02;;;;;;;5.28;2.47;;;7.80;99.90;;;;;;5016397;28;20137;-64
2022/11/28 03:56:54;;;;;;;4.78;2.13;;;7.90;99.90;;;;;;5016579;28;20102;-65
2022/11/28 03:59:32;;;;;;;5.57;1.88;;;8.00;99.90;;;;;;5016528;28;20042;-64
2022/11/28 04:02:17;;;;;;;3.20;2.03;;;8.10;99.90;;;;;;5016038;28;20046;-64
2022/11/28 04:05:07;;;;;;;3.63;2.25;;;8.10;99.90;;;;;;5016450;28;20119;-64
2022/11/28 04:07:37;;;;;;;3.92;2.28;;;8.10;99.90;;;;;;5016304;28;20077;-64
2022/11/28 04:10:21;;;;;;;3.88;2.10;;;8.20;99.90;;;;;;5016120;28;20393;-64
2022/11/28 04:13:03;;;;;;;2.95;1.77;;;8.20;99.90;;;;;;5015719;28;20037;-64
2022/11/28 04:15:47;;;;;;;3.42;2.10;;;8.20;99.90;;;;;;5002942;28;20522;-65
2022/11/28 04:18:32;;;;;;;4.55;1.80;;;8.20;99.90;;;;;;5003552;28;20644;-64
2022/11/28 04:21:12;;;;;;;3.08;1.85;;;8.20;99.90;;;;;;5015163;28;20073;-64
2022/11/28 04:23:40;;;;;;;;;;;8.20;99.90;;;;;;5016571;28;20046;-64
2022/11/28 04:26:33;;;;;;;3.70;1.60;;;8.20;99.90;;;;;;5015372;28;20742;-64
2022/11/28 04:29:02;;;;;;;1.92;1.50;;;8.20;99.90;;;;;;5011491;28;20069;-64
2022/11/28 04:31:29;;;;;;;2.83;1.58;;;8.20;99.90;;;;;;5015527;28;20401;-65
2022/11/28 04:34:00;;;;;;;3.88;1.65;;;8.20;99.90;;;;;;5015178;28;20111;-65
2022/11/28 04:36:27;;;;;;;2.10;1.30;;;8.20;99.90;;;;;;5015760;28;20037;-65
2022/11/28 04:38:56;;;;;;;3.20;1.70;;;8.20;99.90;;;;;;5015754;28;20041;-64
2022/11/28 04:41:38;;;;;;;3.35;1.73;;;8.20;99.90;;;;;;5012639;28;20042;-65
2022/11/28 04:44:19;;;;;;;5.05;2.08;;;8.10;99.90;;;;;;4996132;28;20045;-65
2022/11/28 04:46:53;;;;;;;4.18;1.80;;;8.10;99.90;;;;;;4995806;28;20520;-64
2022/11/28 04:49:19;;;;;;;3.25;1.85;;;8.10;99.90;;;;;;4995934;28;20498;-64
2022/11/28 04:52:14;;;;;;;2.30;1.55;;;8.10;99.90;;;;;;5010722;28;20075;-65
2022/11/28 04:54:54;;;;;;;2.58;1.70;;;8.10;99.90;;;;;;4991909;28;20049;-65
2022/11/28 04:57:32;;;;;;;3.63;2.10;;;8.10;99.90;;;;;;5015465;28;20133;-64
2022/11/28 05:00:00;;;;;;;2.63;1.75;;;8.10;99.90;;;;;;5015529;28;20505;-65
2022/11/28 05:02:27;;;;;;;2.85;1.55;;;8.10;99.90;;;;;;5015238;28;20034;-64
2022/11/28 05:04:54;;;;;;;2.22;1.50;;;8.10;99.90;;;;;;5015298;28;20069;-64
2022/11/28 05:07:20;;;;;;;4.28;3.15;;;8.00;99.90;;;;;;5015108;28;20100;-64
2022/11/28 05:09:47;;;;;;;4.50;2.80;;;7.90;99.90;;;;;;5015228;28;20046;-64
2022/11/28 05:12:12;;;;;;;4.00;2.38;;;7.90;99.90;;;;;;5014275;28;20540;-64
2022/11/28 05:14:39;;;;;;;3.92;2.00;;;7.90;99.90;;;;;;5014751;28;20161;-64
2022/11/28 05:17:06;;;;;;;3.90;2.35;;;7.90;99.90;;;;;;5015202;28;20025;-64
2022/11/28 05:19:31;;;;;;;6.20;2.05;;;8.00;99.90;;;;;;5015012;28;20046;-64
2022/11/28 05:21:57;;;;;;;3.72;2.05;;;7.90;99.90;;;;;;5014512;28;20037;-65
2022/11/28 05:24:23;;;;;;;4.32;1.83;;;7.90;99.90;;;;;;5014390;28;20124;-65
2022/11/28 05:26:49;;;;;;;3.25;2.50;;;7.90;99.90;;;;;;5014133;28;20520;-64
2022/11/28 05:29:15;;;;;;;3.00;2.20;;;7.90;99.90;;;;;;5011246;28;20369;-64
2022/11/28 05:31:41;;;;;;;4.00;2.70;;;7.90;99.90;;;;;;5013450;28;20057;-64
2022/11/28 05:34:06;;;;;;;2.53;1.80;;;7.90;99.90;;;;;;5013530;28;20748;-64
2022/11/28 05:36:32;;;;;;;3.92;2.00;;;8.00;99.90;;;;;;5011591;28;20489;-64
2022/11/28 05:38:58;;;;;;;3.53;2.10;;;8.00;99.90;;;;;;5014303;28;20400;-64
2022/11/28 05:41:30;;;;;;;5.65;1.98;;;8.00;99.90;;;;;;5014719;28;20129;-64
2022/11/28 05:43:57;;;;;;;2.75;1.85;;;7.90;99.90;;;;;;5014074;28;20034;-65
2022/11/28 05:46:24;;;;;;;4.38;2.03;;;7.90;99.90;;;;;;5012203;28;20038;-68
2022/11/28 05:48:49;;;;;;;5.65;2.00;;;7.90;99.90;;;;;;5013142;28;20045;-65
2022/11/28 05:51:15;;;;;;;4.88;2.33;;;7.90;99.90;;;;;;5013570;28;20029;-65
2022/11/28 05:53:41;;;;;;;2.75;1.90;;;7.80;99.90;;;;;;5014431;28;20128;-64
2022/11/28 05:56:25;;;;;;;3.42;1.90;;;7.90;99.90;;;;;;5013321;28;20505;-65
2022/11/28 05:58:53;;;;;;;3.33;2.00;;;7.90;99.90;;;;;;5014646;28;20164;-65
2022/11/28 06:01:22;;;;;;;4.53;2.63;;;7.90;99.90;;;;;;5014350;28;20038;-64
2022/11/28 06:03:47;;;;;;;5.80;2.83;;;7.90;99.90;;;;;;5014034;28;20047;-65
2022/11/28 06:06:19;;;;;;;4.40;2.42;;;7.90;99.90;;;;;;5013897;28;20128;-64
2022/11/28 06:08:46;;;;;;;2.42;1.58;;;7.90;99.90;;;;;;5013950;28;20041;-65
2022/11/28 06:11:13;;;;;;;3.33;2.33;;;8.00;99.90;;;;;;5014261;28;20064;-64
2022/11/28 06:13:40;;;;;;;4.47;2.40;;;8.00;99.90;;;;;;5014008;28;20045;-65
2022/11/28 06:16:08;;;;;;;2.80;1.55;;;8.00;99.90;;;;;;5008411;28;20197;-64
2022/11/28 06:18:34;;;;;;;3.00;1.85;;;8.00;99.90;;;;;;5014106;28;20408;-65
2022/11/28 06:21:05;;;;;;;4.78;2.05;;;8.10;99.90;;;;;;5014155;28;20046;-65
2022/11/28 06:23:31;;;;;;;2.33;1.77;;;8.10;99.90;;;;;;5014065;28;20067;-65
2022/11/28 06:26:02;;;;;;;23.35;11.38;;;8.10;99.90;;;;;;5014213;28;20068;-65
2022/11/28 06:28:28;;;;;;;22.10;11.80;;;8.10;99.90;;;;;;5014239;28;20045;-65
2022/11/28 06:30:53;;;;;;;18.35;10.95;;;8.10;99.90;;;;;;5014256;28;20022;-65
2022/11/28 06:33:19;;;;;;;6.68;4.13;;;8.10;99.90;;;;;;5014191;28;20192;-64
2022/11/28 06:35:45;;;;;;;15.35;8.38;;;8.10;99.90;;;;;;5014088;28;20034;-65
2022/11/28 06:38:10;;;;;;;8.48;6.68;;;8.10;99.90;;;;;;5012321;28;20046;-66
2022/11/28 06:40:38;;;;;;;11.20;7.82;;;8.10;99.90;;;;;;5013386;28;20034;-65
2022/11/28 06:43:05;;;;;;;8.82;5.45;;;8.10;99.90;;;;;;5012079;28;20041;-66
2022/11/28 06:45:33;;;;;;;3.45;2.15;;;8.10;99.90;;;;;;5011904;28;20042;-65
2022/11/28 06:47:59;;;;;;;4.25;1.65;;;8.10;99.90;;;;;;5012138;28;20125;-68
2022/11/28 07:18:55;;;;;;;2.92;2.42;;;8.20;99.90;;;;;;5375645;23;20061;-77
2022/11/28 07:21:21;;;;;;;4.43;2.88;;;8.20;99.90;;;;;;5037584;28;20033;-78
2022/11/28 07:23:47;;;;;;;4.82;2.70;;;8.10;99.90;;;;;;5037426;28;20044;-77
2022/11/28 07:26:17;;;;;;;2.58;2.10;;;8.20;99.90;;;;;;5037396;28;20043;-78
2022/11/28 07:28:44;;;;;;;2.65;1.90;;;8.20;99.90;;;;;;5037464;28;20060;-73
2022/11/28 07:31:13;;;;;;;4.55;2.17;;;8.20;99.90;;;;;;5034292;28;20083;-78
2022/11/28 07:33:40;;;;;;;3.25;2.00;;;8.20;99.90;;;;;;5037180;28;20041;-72
2022/11/28 07:36:20;;;;;;;6.35;2.80;;;8.20;99.90;;;;;;5037379;28;20052;-77
2022/11/28 07:38:50;;;;;;;2.53;1.95;;;8.20;99.90;;;;;;5035919;28;20045;-78
2022/11/28 07:41:16;;;;;;;2.90;2.10;;;8.20;99.90;;;;;;5036096;28;20033;-75
2022/11/28 07:43:43;;;;;;;3.08;2.08;;;8.20;99.90;;;;;;5037019;28;20060;-77
2022/11/28 07:46:12;;;;;;;3.80;2.22;;;8.20;99.90;;;;;;5036952;28;20095;-75
2022/11/28 07:48:38;;;;;;;3.35;2.47;;;8.30;99.90;;;;;;5036891;28;20041;-77
2022/11/28 07:51:09;;;;;;;5.00;2.45;;;8.30;99.90;;;;;;5036997;28;20064;-72
2022/11/28 07:53:36;;;;;;;4.63;2.25;;;8.30;99.90;;;;;;5036666;28;20057;-78
2022/11/28 07:56:04;;;;;;;9.27;4.15;;;8.30;99.90;;;;;;5035810;28;20049;-79
2022/11/28 07:58:30;;;;;;;7.55;2.42;;;8.30;99.90;;;;;;5034293;28;20076;-78
2022/11/28 08:00:56;;;;;;;5.18;2.90;;;8.30;99.90;;;;;;5031351;28;20033;-79
2022/11/28 08:03:22;;;;;;;4.63;2.22;;;8.30;99.90;;;;;;5034523;28;20041;-80
2022/11/28 08:05:48;;;;;;;5.85;3.83;;;8.30;99.90;;;;;;5035009;28;20440;-79
2022/11/28 08:08:18;;;;;;;4.13;2.17;;;8.30;99.90;;;;;;5035008;28;20084;-75
2022/11/28 08:10:45;;;;;;;3.60;2.22;;;8.30;99.90;;;;;;5035013;28;20050;-78
2022/11/28 08:13:12;;;;;;;7.88;3.15;;;8.40;99.90;;;;;;5035645;28;20034;-80
2022/11/28 08:15:39;;;;;;;6.78;3.53;;;8.40;99.90;;;;;;5036337;28;20046;-79
2022/11/28 08:18:06;;;;;;;3.20;1.77;;;8.40;99.90;;;;;;5035222;28;20044;-79
2022/11/28 08:20:32;;;;;;;2.65;1.60;;;8.40;99.90;;;;;;5017390;28;20041;-79
2022/11/28 08:22:58;;;;;;;10.95;3.83;;;8.40;99.90;;;;;;5034914;28;20060;-77
2022/11/28 08:25:25;;;;;;;20.02;5.50;;;8.40;99.90;;;;;;5036026;28;20049;-76
2022/11/28 08:27:50;;;;;;;30.65;7.97;;;8.40;99.90;;;;;;5035562;28;20044;-79
2022/11/28 08:30:16;;;;;;;72.38;19.23;;;8.50;99.90;;;;;;5036173;28;20049;-78
2022/11/28 08:32:42;;;;;;;86.82;24.02;;;8.40;99.90;;;;;;5036038;28;20099;-79
2022/11/28 08:35:08;;;;;;;57.75;18.08;;;8.40;99.90;;;;;;5035967;28;20053;-78
2022/11/28 08:37:34;;;;;;;54.10;18.55;;;8.40;99.90;;;;;;5035722;28;20515;-78
2022/11/28 08:39:59;;;;;;;19.02;7.25;;;8.40;99.90;;;;;;5036194;28;20514;-73
2022/11/28 08:42:27;;;;;;;6.50;3.17;;;8.40;99.90;;;;;;5036094;28;20040;-78
2022/11/28 08:44:52;;;;;;;2.92;1.58;;;8.50;99.90;;;;;;5034590;28;20049;-73
2022/11/28 08:47:18;;;;;;;2.05;1.48;;;8.40;99.90;;;;;;5035926;28;20034;-79
2022/11/28 08:49:44;;;;;;;5.30;2.42;;;8.50;99.90;;;;;;5035829;28;20049;-77
2022/11/28 08:52:10;;;;;;;5.28;2.78;;;8.50;99.90;;;;;;5035856;28;20566;-78
2022/11/28 08:54:36;;;;;;;6.00;3.25;;;8.50;99.90;;;;;;5035805;28;20076;-78
2022/11/28 08:57:01;;;;;;;3.88;1.90;;;8.50;99.90;;;;;;5034493;28;20033;-78
2022/11/28 08:59:27;;;;;;;2.80;1.63;;;8.60;99.90;;;;;;5035703;28;20036;-75
2022/11/28 09:01:53;;;;;;;2.30;1.25;;;8.60;99.90;;;;;;5035623;28;20045;-72
2022/11/28 09:04:20;;;;;;;3.72;1.58;;;8.60;99.90;;;;;;5035560;28;20068;-78
2022/11/28 09:06:46;;;;;;;4.18;2.13;;;8.60;99.90;;;;;;5035456;28;20030;-78
2022/11/28 09:09:12;;;;;;;2.45;1.65;;;8.60;99.90;;;;;;5035545;28;20053;-78
2022/11/28 09:11:38;;;;;;;2.25;1.20;;;8.60;99.90;;;;;;5035557;28;20072;-76
2022/11/28 09:14:04;;;;;;;2.30;1.13;;;8.60;99.90;;;;;;5035306;28;20053;-78
2022/11/28 09:16:30;;;;;;;1.45;1.08;;;8.60;99.90;;;;;;5035110;28;20029;-76
2022/11/28 09:18:57;;;;;;;2.15;0.90;;;8.60;99.90;;;;;;5035054;28;20179;-73
2022/11/28 09:21:24;;;;;;;1.00;0.70;;;8.70;99.90;;;;;;5034800;28;20025;-73
2022/11/28 09:23:50;;;;;;;1.60;0.95;;;8.70;99.90;;;;;;5017868;28;20037;-76
2022/11/28 09:26:18;;;;;;;1.88;1.25;;;8.70;99.90;;;;;;5015486;28;20038;-76
2022/11/28 09:28:45;;;;;;;1.88;1.27;;;8.80;99.90;;;;;;5015294;28;20101;-76
2022/11/28 09:31:13;;;;;;;1.08;0.90;;;8.70;99.90;;;;;;5015512;28;20038;-73
2022/11/28 09:33:39;;;;;;;3.05;1.50;;;8.80;99.90;;;;;;5015465;28;20429;-72
2022/11/28 09:36:07;;;;;;;1.92;1.23;;;8.80;99.90;;;;;;5014011;28;20503;-76
2022/11/28 09:38:33;;;;;;;2.67;1.50;;;8.80;99.90;;;;;;5015234;28;20445;-73
2022/11/28 09:41:01;;;;;;;1.30;0.85;;;8.80;99.90;;;;;;5014312;28;20072;-72
2022/11/28 09:43:37;;;;;;;2.03;1.00;;;8.80;99.90;;;;;;5014947;28;20041;-73
2022/11/28 09:46:10;;;;;;;1.58;0.93;;;8.80;99.90;;;;;;5014823;28;20065;-77
2022/11/28 09:48:43;;;;;;;408.20;143.25;;;8.80;99.90;;;;;;5014858;28;20136;-78
2022/11/28 09:51:21;;;;;;;25.30;11.50;;;8.90;99.90;;;;;;5014877;28;20373;-77
2022/11/28 09:54:09;;;;;;;17.65;9.25;;;8.80;99.90;;;;;;5028772;28;20075;-74
2022/11/28 09:56:36;;;;;;;8.40;5.18;;;8.80;99.90;;;;;;5034460;28;20191;-78
2022/11/28 09:59:04;;;;;;;10.93;5.35;;;8.90;99.90;;;;;;5034369;28;20040;-77
2022/11/28 10:02:03;;;;;;;2.42;2.10;;;8.90;99.90;;;;;;5034658;28;20447;-77
2022/11/28 10:04:45;;;;;;;4.22;2.13;;;8.80;99.90;;;;;;5034583;28;20060;-78
2022/11/28 10:07:14;;;;;;;6.03;3.00;;;8.80;99.90;;;;;;5034332;28;20037;-72
2022/11/28 10:10:15;;;;;;;2.53;1.73;;;8.90;99.90;;;;;;5034309;28;20045;-77
2022/11/28 10:13:01;;;;;;;7.38;5.75;;;8.90;99.90;;;;;;5034279;28;20514;-77
2022/11/28 10:15:49;;;;;;;4.47;3.10;;;9.00;99.90;;;;;;5034210;28;20399;-78
2022/11/28 10:18:34;;;;;;;3.75;2.15;;;9.00;99.90;;;;;;5034336;28;20034;-77
2022/11/28 10:21:37;;;;;;;3.15;1.90;;;9.00;99.90;;;;;;5031871;28;20053;-72
2022/11/28 10:24:11;;;;;;;7.00;5.10;;;9.10;99.90;;;;;;5033523;28;20061;-73
2022/11/28 10:26:44;;;;;;;2.50;2.15;;;9.10;99.90;;;;;;5034290;28;20033;-78
2022/11/28 10:29:25;;;;;;;3.30;1.83;;;9.10;99.90;;;;;;5034166;28;20075;-76
2022/11/28 10:31:55;;;;;;;4.75;3.15;;;9.10;99.90;;;;;;5034380;28;20369;-77
2022/11/28 10:34:30;;;;;;;5.43;2.00;;;9.10;99.90;;;;;;5032918;28;20143;-72
2022/11/28 10:37:03;;;;;;;0.98;0.50;;;9.00;99.90;;;;;;5034356;28;20033;-78
2022/11/28 10:39:29;;;;;;;5.20;3.25;;;8.90;99.90;;;;;;5034102;28;20041;-78
2022/11/28 10:42:19;;;;;;;2.30;1.15;;;8.90;99.90;;;;;;5034135;28;20037;-81
2022/11/28 10:44:59;;;;;;;24.05;14.68;;;8.90;99.90;;;;;;5033991;28;20071;-80
2022/11/28 10:47:43;;;;;;;1.83;1.17;;;9.00;99.90;;;;;;5034376;28;20083;-80
2022/11/28 10:50:44;;;;;;;9.48;6.15;;;9.00;99.90;;;;;;5033716;28;20037;-78
2022/11/28 10:53:13;;;;;;;;;;;9.00;99.90;;;;;;5006171;28;20038;-78
2022/11/28 10:56:17;;;;;;;65.07;32.95;;;9.00;99.90;;;;;;5035654;28;19918;-77
2022/11/28 10:58:53;;;;;;;66.95;33.33;;;9.10;99.90;;;;;;5035548;28;20071;-79
2022/11/28 11:01:20;;;;;;;37.00;20.85;;;9.10;99.90;;;;;;5036197;28;20128;-79
2022/11/28 11:03:47;;;;;;;24.90;13.77;;;9.10;99.90;;;;;;5037530;28;20049;-72
2022/11/28 11:06:13;;;;;;;12.82;7.20;;;9.10;99.90;;;;;;5035910;28;20045;-79
2022/11/28 11:08:40;;;;;;;10.30;4.32;;;9.20;99.90;;;;;;5035093;28;20407;-72
2022/11/28 11:11:26;;;;;;;5.90;2.70;;;9.20;99.90;;;;;;5035151;28;20042;-72
2022/11/28 11:14:01;;;;;;;20.13;9.55;;;9.10;99.90;;;;;;5035138;28;20049;-73
2022/11/28 11:16:48;;;;;;;10.50;6.57;;;9.10;99.90;;;;;;5035237;28;20064;-72
2022/11/28 11:19:31;;;;;;;39.83;27.20;;;9.10;99.90;;;;;;5035100;28;20472;-72
2022/11/28 11:21:58;;;;;;;22.73;17.42;;;9.10;99.90;;;;;;5034447;28;20480;-78
2022/11/28 11:24:23;;;;;;;4.75;3.03;;;9.20;99.90;;;;;;5035002;28;20815;-75
2022/11/28 11:26:50;;;;;;;2.53;1.17;;;9.10;99.90;;;;;;5035165;28;20035;-72
2022/11/28 11:29:28;;;;;;;3.97;1.40;;;9.10;99.90;;;;;;5036263;28;20041;-78
2022/11/28 11:31:55;;;;;;;4.75;1.85;;;9.10;99.90;;;;;;5019898;28;20068;-72
2022/11/28 11:34:23;;;;;;;7.55;2.35;;;9.20;99.90;;;;;;5030575;28;20049;-78
2022/11/28 11:36:49;;;;;;;6.90;1.77;;;9.20;99.90;;;;;;5034432;28;20064;-72
2022/11/28 11:39:21;;;;;;;17.48;6.63;;;9.20;99.90;;;;;;5033629;28;20103;-72
2022/11/28 11:41:50;;;;;;;13.43;5.28;;;9.20;99.90;;;;;;5034291;28;20037;-73
2022/11/28 11:44:29;;;;;;;24.67;10.30;;;9.20;99.90;;;;;;5034410;28;20037;-78
2022/11/28 11:47:04;;;;;;;25.35;8.13;;;9.30;99.90;;;;;;5031180;28;20463;-74
2022/11/28 11:49:43;;;;;;;50.15;20.48;;;9.30;99.90;;;;;;5025427;28;20056;-77
2022/11/28 11:52:12;;;;;;;26.98;10.88;;;9.30;99.90;;;;;;5026990;28;20446;-78
2022/11/28 11:54:58;;;;;;;15.82;5.10;;;9.40;99.90;;;;;;5036239;28;20049;-77
2022/11/28 11:57:39;;;;;;;7.47;1.55;;;9.30;99.90;;;;;;5036154;28;20492;-76
2022/11/28 12:00:10;;;;;;;;;;;9.30;99.90;;;;;;5036852;28;20053;-73
2022/11/28 12:02:45;;;;;;;15.68;6.75;;;9.30;99.90;;;;;;5035332;28;19909;-73
2022/11/28 12:05:16;;;;;;;63.00;33.03;;;9.30;99.90;;;;;;5034036;28;20103;-78
2022/11/28 12:07:48;;;;;;;6.95;3.65;;;9.30;99.90;;;;;;5033711;28;20046;-77
2022/11/28 12:10:19;;;;;;;17.50;5.25;;;9.30;99.90;;;;;;5034158;28;20045;-78
2022/11/28 12:12:45;;;;;;;6.97;3.28;;;9.40;99.90;;;;;;5033887;28;20045;-77
2022/11/28 12:15:51;;;;;;;7.82;4.43;;;9.30;99.90;;;;;;5032946;28;20056;-78
2022/11/28 12:18:27;;;;;;;8.13;4.07;;;9.30;99.90;;;;;;5034701;28;20042;-78
2022/11/28 12:21:19;;;;;;;17.25;4.43;;;9.30;99.90;;;;;;5034722;28;20419;-74
2022/11/28 12:24:11;;;;;;;16.70;4.55;;;9.30;99.90;;;;;;5018794;28;20048;-78
2022/11/28 12:27:05;;;;;;;5.85;1.50;;;9.30;99.90;;;;;;5010143;28;20043;-71
2022/11/28 12:29:35;;;;;;;11.18;3.55;;;9.20;99.90;;;;;;5035685;28;20034;-72
2022/11/28 12:32:16;;;;;;;10.68;3.47;;;9.20;99.90;;;;;;5035621;28;20034;-72
2022/11/28 12:35:14;;;;;;;7.28;2.78;;;9.20;99.90;;;;;;5035396;28;20162;-80
2022/11/28 12:38:15;;;;;;;8.18;1.67;;;9.30;99.90;;;;;;5033634;28;20033;-79
2022/11/28 12:40:53;;;;;;;11.50;1.90;;;9.20;99.90;;;;;;5033105;28;20041;-79
2022/11/28 12:43:32;;;;;;;7.88;2.08;;;9.20;99.90;;;;;;5033442;28;20048;-79
2022/11/28 12:46:07;;;;;;;21.25;8.23;;;9.10;99.90;;;;;;5033430;28;20037;-79
2022/11/28 12:48:59;;;;;;;12.70;4.07;;;9.10;99.90;;;;;;5030428;28;20079;-77
2022/11/28 12:51:43;;;;;;;8.00;2.10;;;9.10;99.90;;;;;;5033087;28;20049;-73
2022/11/28 12:54:27;;;;;;;6.90;1.52;;;9.10;99.90;;;;;;5033300;28;20136;-79
2022/11/28 12:57:04;;;;;;;9.77;1.42;;;9.10;99.90;;;;;;5033483;28;20403;-73
2022/11/28 12:59:54;;;;;;;10.02;2.28;;;9.10;99.90;;;;;;5034077;28;20522;-80
2022/11/28 13:02:33;;;;;;;12.65;5.05;;;9.10;99.90;;;;;;5033652;28;20037;-80
2022/11/28 13:05:22;;;;;;;8.65;2.55;;;9.10;99.90;;;;;;5033459;28;20041;-72
2022/11/28 13:08:22;;;;;;;9.30;3.90;;;9.20;99.90;;;;;;5033238;28;20071;-72
2022/11/28 13:11:18;;;;;;;16.90;6.43;;;9.20;99.90;;;;;;5033749;28;20423;-80
2022/11/28 13:14:08;;;;;;;8.40;2.05;;;9.20;99.90;;;;;;5032359;28;20512;-79
2022/11/28 13:16:50;;;;;;;3.75;1.02;;;9.20;99.90;;;;;;5033161;28;20037;-72
2022/11/28 13:19:31;;;;;;;9.00;1.83;;;9.10;99.90;;;;;;5032736;28;20104;-77
2022/11/28 13:22:22;;;;;;;6.47;1.67;;;9.10;99.90;;;;;;5032929;28;20034;-80
2022/11/28 13:25:06;;;;;;;4.63;1.20;;;9.20;99.90;;;;;;5034068;28;20041;-79
2022/11/28 13:27:34;;;;;;;7.95;1.50;;;9.20;99.90;;;;;;5032963;28;20049;-80
2022/11/28 13:30:15;;;;;;;6.60;1.40;;;9.20;99.90;;;;;;5031718;28;20045;-80
2022/11/28 13:32:47;;;;;;;;;;;9.20;99.90;;;;;;5031544;28;20052;-78
2022/11/28 13:35:16;;;;;;;9.48;1.42;;;9.20;99.90;;;;;;5032196;28;20443;-79
2022/11/28 13:38:02;;;;;;;9.68;1.52;;;9.20;99.90;;;;;;5028430;28;20033;-81
2022/11/28 13:40:31;;;;;;;8.57;1.88;;;9.30;99.90;;;;;;4992258;28;20037;-79
2022/11/28 13:43:13;;;;;;;6.30;1.52;;;9.40;99.90;;;;;;5024927;28;20130;-72
2022/11/28 13:45:44;;;;;;;7.68;1.60;;;9.40;99.90;;;;;;5030050;28;20119;-74
2022/11/28 13:48:28;;;;;;;;;;;9.40;99.90;;;;;;5031124;28;20042;-73
2022/11/28 13:51:13;;;;;;;12.40;3.30;;;9.40;99.90;;;;;;5031966;28;19909;-79
2022/11/28 13:53:41;;;;;;;6.53;1.73;;;9.40;99.90;;;;;;5010881;28;20749;-79
2022/11/28 13:56:06;;;;;;;8.15;1.65;;;9.40;99.90;;;;;;5012655;28;20157;-80